Terminal Aerodrome Forecast
Issued by NWS

Current Version | Previous Version | Text Only | Print | Product List | Glossary On
Versions: 1 2 3 4 5 6 7 8 9 10 11 12 13 14 15 16
000
FTUS44 KBMX 210520
TAFTOI
TAF
KTOI 210520Z 2106/2206 06003KT P6SM SKC
     FM211400 08008KT P6SM SKC
     FM211700 10013KT P6SM SCT050
     FM220300 07010KT P6SM BKN025=

USA.gov is the U.S. government's official web portal to all federal, state and local government web resources and services.